This is the latest recevied weather packets stored in our database for station/object OE-11361. If no packets are shown the sender has not sent any weather packets the latest 10 day(s).
| Time | Temp. | Humidity | Pressure | Rain* | Wind** | Luminosity | Snow |
|---|---|---|---|---|---|---|---|
| 1788551706 | 20.56° C | 66% | 1014.7 hPa | 0 mm | - | 0 W/m² | - |
| 1788550877 | 20° C | 68% | 1014.8 hPa | 0 mm | - | 0 W/m² | - |
| 1788550504 | 20° C | 69% | 1014.7 hPa | 0 mm | - | 0 W/m² | - |
| 1788549077 | 20.56° C | 67% | 1014.3 hPa | 0 mm | - | 0 W/m² | - |
| 1788548704 | 20.56° C | 66% | 1014.2 hPa | 0 mm | - | 0 W/m² | - |
| 1788546904 | 21.67° C | 61% | 1013.6 hPa | 0 mm | - | 0 W/m² | - |
| 1788541877 | 25° C | 51% | 1012.1 hPa | 0 mm | - | 41 W/m² | - |
| 1788540904 | 25.56° C | 46% | 1011.9 hPa | 0 mm | - | 124 W/m² | - |
| 1788539704 | 26.11° C | 43% | 1011.7 hPa | 0 mm | - | 179 W/m² | - |
| 1788538278 | 27.22° C | 41% | 1011.7 hPa | 0 mm | - | 234 W/m² | - |
| 1788537904 | 28.33° C | 38% | 1011.5 hPa | 0 mm | - | 262 W/m² | - |
| 1788537304 | 29.44° C | 34% | 1011.4 hPa | 0 mm | - | 289 W/m² | - |
| 1788535504 | 30° C | 31% | 1011.6 hPa | 0 mm | - | 345 W/m² | - |
| 1788534677 | 30.56° C | 30% | 1011.5 hPa | 0 mm | - | 393 W/m² | - |
| 1788534304 | 31.11° C | 31% | 1011.6 hPa | 0 mm | - | 420 W/m² | - |
| 1788532504 | 31.67° C | 27% | 1011.9 hPa | 0 mm | - | 496 W/m² | - |
| 1788531904 | 31.67° C | 29% | 1012.1 hPa | 0 mm | - | 517 W/m² | - |
| 1788531077 | 31.67° C | 27% | 1012.2 hPa | 0 mm | - | 538 W/m² | - |
| 1788530704 | 31.67° C | 28% | 1012.2 hPa | 0 mm | - | 558 W/m² | - |
| 1788528904 | 31.67° C | 32% | 1012.9 hPa | 0 mm | - | 620 W/m² | - |
| 1788527477 | 31.11° C | 30% | 1013.3 hPa | 0 mm | - | 655 W/m² | - |
| 1788527104 | 31.11° C | 30% | 1013.4 hPa | 0 mm | - | 669 W/m² | - |
| 1788521704 | 28.33° C | 34% | 1015.5 hPa | 0 mm | - | 703 W/m² | - |
| 1788521104 | 28.89° C | 35% | 1015.8 hPa | 0 mm | - | 717 W/m² | - |
| 1788518104 | 27.78° C | 35% | 1016.8 hPa | 0 mm | - | 744 W/m² | - |
* Rain latest hour (hover to see other rain measurements)
** Current wind speed in m/s (hover to see current wind gust speed)